Santa Tereza, Brazil
Current Conditions -  °F | °C
As of 6:00 PM on Friday 28 Nov 2014 (Local Time) from SBCO Reporting Station
Clear Clear  
Wind Chill: 79°   Ceiling: Unl
Heat Index: 80°   Visibility: 6mi
Dew Point: 61°   Wind: 20mph
Humidity: 54%   Direction: 130°SE
Pressure: 29.97"   Gusts: NA
Location:  29.17°S, 51.74°W
Report Text: SBCO 282000Z 13017KT CAVOK 26/16 Q1015
Loading
Personal Weather Stations






























Interactive Weather Map New forecast layout! Learn more

10-Day Weather Forecast

Advertisements
Track Severe Weather on mobile